• Join FlightAware (Why Join?)
  • Login
  • US Flag 
11:47PM EDT


 

Airport Tracker/Info


-or-


 

Live Flight TrackerFlight Track Log ✈ KAP46 ✈ 11-Oct-2013 ✈ KMSS - KALB

Flight Track Log - Related Links

Times and Time Zones

All times are in EDT time to prevent confusion due to time zone crossing. See the KAP46 flight status page for this flight to view local times or setup timezone preferences in your user account.

Time Position Orientation Groundspeed Altitude Reporting Facility
EDT Latitude Longitude Course Direction KTS MPH feet Rate Location/Type
07:31AM 44.6058 -74.6997 160° South 145 167 7,000  Level Boston Center
07:32AM 44.5586 -74.6717 157° South 134 154 7,000 -60 Level Boston Center
07:33AM 44.5108 -74.6556 166° South 162 186 6,900 -60 Descending Boston Center
07:34AM 44.4633 -74.6361 164° South 174 200 6,900  Level Boston Center
07:35AM 44.4158 -74.6083 157° South 179 206 6,900  Level Boston Center
07:36AM 44.7898 -74.7727 160° South  Level Estimated
07:36AM 44.3706 -74.5775 154° Southeast 179 206 6,900  Level Boston Center
07:37AM 44.3275 -74.5528 158° South 184 212 6,900  Level Boston Center
07:38AM 44.2819 -74.5250 156° South 184 212 6,900  Level Boston Center
07:39AM 44.2344 -74.5031 162° South 184 212 6,900  Level Boston Center
07:40AM 44.1847 -74.4897 169° South 184 212 6,900  Level Boston Center
07:41AM 44.1369 -74.4794 171° South 184 212 6,900  Level Boston Center
07:42AM 44.0894 -74.4547 160° South 178 205 6,900  Level Boston Center
07:43AM 44.0483 -74.4303 157° South 172 198 7,000  Climbing Boston Center
07:44AM 44.0050 -74.4058 158° South 166 191 7,000 -60 Level Boston Center
07:45AM 43.9614 -74.3842 160° South 166 191 6,900 -60 Descending Boston Center
07:46AM 43.9161 -74.3625 161° South 166 191 6,900  Level Boston Center
07:47AM 43.8706 -74.3408 161° South 166 191 6,900  Level Boston Center
07:48AM 43.8272 -74.3164 158° South 166 191 6,900  Level Boston Center
07:49AM 43.7817 -74.2978 164° South 166 191 7,000  Climbing Boston Center
07:50AM 43.7361 -74.2819 166° South 166 191 7,000 -60 Level Boston Center
07:51AM 43.6906 -74.2547 157° South 171 197 6,900 -60 Descending Boston Center
07:52AM 43.6453 -74.2306 159° South 171 197 6,900  Level Boston Center
07:53AM 43.6017 -74.2061 158° South 171 197 7,000  Climbing Boston Center
07:54AM 43.5542 -74.1906 167° South 171 197 7,000  Level Boston Center
07:55AM 43.5147 -74.1694 159° South 171 197 7,000  Level Boston Center
07:56AM 43.4650 -74.1478 162° South 173 199 7,000  Level Boston Center
07:56AM 43.4692 -74.1481 357° North 171 197 7,000  Level Boston Center
07:57AM 43.4300 -74.1269 159° South 171 197 7,000  Level Boston Center
07:57AM 43.4258 -74.1211 135° Southeast 166 191 7,000  Level Boston Center
07:58AM 43.3783 -74.0911 155° Southeast 171 197 7,000  Level Boston Center
07:59AM 43.3369 -74.0728 162° South 169 194 7,100  Climbing Boston Center
08:00AM 43.2892 -74.0575 167° South 172 198 7,000 -240 Descending Boston Center
08:01AM 43.2417 -74.0275 155° Southeast 166 191 6,700 -360 Descending Boston Center
08:02AM 43.2044 -74.0039 155° Southeast 181 208 6,400 -300 Descending Boston Center
08:02AM 43.1964 -73.9981 152° Southeast 172 198 6,400 -420 Level Boston Center
08:03AM 43.1528 -73.9769 161° South 184 212 6,000 -420 Descending Boston Center
08:03AM 43.1486 -73.9739 152° Southeast 182 209 6,000 -600 Level Boston Center
08:04AM 43.0989 -73.9586 167° South 182 209 5,400 -600 Descending Boston Center
08:05AM 43.0572 -73.9517 173° South 186 214 4,900 -540 Descending Boston Center
08:05AM 43.0469 -73.9517 180° South 187 215 4,900 -600 Level Boston Center
08:06AM 42.9989 -73.9475 176° South 184 212 4,300 -660 Descending Boston Center
08:06AM 42.9969 -73.9447 134° Southeast 187 215 4,300 -420 Level Boston Center
08:07AM 42.9469 -73.9464 181° South 183 211 3,900 -420 Descending Boston Center
08:07AM 42.9450 -73.9406 114° Southeast 181 208 3,900 -540 Level Boston Center
08:08AM 42.9033 -73.9394 179° South 181 208 3,400 -540 Descending Boston Center
08:08AM 42.8969 -73.9364 161° South 181 208 3,400 -180 Level Boston Center
08:09AM 42.8492 -73.9325 177° South 181 208 3,200 -360 Descending Boston Center
08:10AM 42.8136 -73.9289 176° South 179 206 2,800 -540 Descending Boston Center
08:11AM 42.7619 -73.9133 168° South 178 205 2,300 -420 Descending Boston Center
08:12AM 42.7206 -73.8900 158° South 163 188 2,000 -480 Descending Boston Center
08:13AM 42.7000 -73.8497 125° Southeast 112 129 1,400 -660 Descending Boston Center
08:14AM 42.7111 -73.8133 67° East 107 123 700 -720 Descending Boston Center
08:16AM 42.7333 -73.8000 170° South  Level FlightAware Approximate
08:23AM 42.7491 -73.8020 170° South  Level Estimated